createdAt,value
2022-12-13T15:05:28.475Z,-5.04425
2022-12-13T15:08:46.630Z,-5.175171
2022-12-13T15:12:15.234Z,-5.386658
2022-12-13T15:15:37.134Z,-5.547791
2022-12-13T15:19:02.407Z,-5.567932
2022-12-13T15:22:29.094Z,-5.749207
2022-12-13T15:25:52.961Z,-5.940552
2022-12-13T15:29:18.224Z,-6.131897
2022-12-13T15:32:43.490Z,-6.262817
2022-12-13T15:36:08.835Z,-6.393738
2022-12-13T15:39:34.140Z,-6.29303
2022-12-13T15:42:59.405Z,-6.323242
2022-12-13T15:46:24.762Z,-6.393738
2022-12-13T15:49:49.910Z,-6.504517
2022-12-13T15:53:15.178Z,-6.474304
2022-12-13T15:56:40.450Z,-6.393738
2022-12-13T16:00:05.760Z,-6.282959
2022-12-13T16:03:31.369Z,-6.42395
2022-12-13T16:06:56.273Z,-6.5448
2022-12-13T16:10:21.589Z,-6.615295
2022-12-13T16:13:47.425Z,-6.625366
2022-12-13T16:17:12.244Z,-6.625366
2022-12-13T16:20:38.156Z,-6.615295
2022-12-13T16:24:03.473Z,-6.615295
2022-12-13T16:27:28.786Z,-6.605225
2022-12-13T16:30:54.093Z,-6.585083
2022-12-13T16:34:19.360Z,-6.615295
2022-12-13T16:37:47.963Z,-6.605225
2022-12-13T16:41:10.480Z,-6.615295
2022-12-13T16:45:32.690Z,-6.605225
2022-12-13T16:48:26.313Z,-6.504517
2022-12-13T16:51:51.344Z,-6.474304
2022-12-13T16:55:16.644Z,-6.444092
2022-12-13T16:58:46.190Z,-6.373596
2022-12-13T17:02:07.279Z,-6.29303
2022-12-13T17:05:32.511Z,-6.192322
2022-12-13T17:08:57.752Z,-6.232605
2022-12-13T17:12:23.012Z,-6.282959
2022-12-13T17:15:48.368Z,-6.313171
2022-12-13T17:19:13.690Z,-6.29303
2022-12-13T17:22:39.022Z,-6.252747
2022-12-13T17:26:04.309Z,-6.192322
2022-12-13T17:29:29.680Z,-6.192322
2022-12-13T17:32:54.951Z,-6.162109
2022-12-13T17:36:20.304Z,-6.152039
2022-12-13T17:39:45.637Z,-6.222534
2022-12-13T17:43:16.898Z,-6.252747
2022-12-13T17:46:36.319Z,-6.212463
2022-12-13T17:50:01.709Z,-6.262817
2022-12-13T17:53:27.277Z,-6.323242
2022-12-13T17:56:52.410Z,-6.29303
2022-12-13T18:00:17.776Z,-6.323242
2022-12-13T18:03:43.110Z,-6.464233
2022-12-13T18:07:08.505Z,-6.605225
2022-12-13T18:10:33.781Z,-6.625366
2022-12-13T18:13:59.248Z,-6.67572
2022-12-13T18:17:40.539Z,-6.856995
2022-12-13T18:20:49.951Z,-7.038269
2022-12-13T18:24:15.246Z,-7.008057
2022-12-13T18:27:40.633Z,-6.947632
2022-12-13T18:31:06.025Z,-6.907349
2022-12-13T18:34:31.490Z,-6.887207
2022-12-13T18:37:57.143Z,-6.856995
2022-12-13T18:41:22.491Z,-6.826782
2022-12-13T18:44:50.764Z,-6.766357
2022-12-13T18:48:13.186Z,-6.756287
2022-12-13T18:51:38.550Z,-6.625366
2022-12-13T18:55:03.874Z,-6.575012
2022-12-13T18:58:29.193Z,-6.5448
2022-12-13T19:01:54.538Z,-6.434021
2022-12-13T19:05:19.937Z,-6.222534
2022-12-13T19:08:45.189Z,-6.000977
2022-12-13T19:12:10.552Z,-5.799561
2022-12-13T19:15:35.938Z,-5.739136
2022-12-13T19:19:01.296Z,-5.718994
2022-12-13T19:22:26.650Z,-5.658569
2022-12-13T19:25:51.955Z,-5.507507
2022-12-13T19:29:17.266Z,-5.386658
2022-12-13T19:32:42.650Z,-5.346375
2022-12-13T19:36:08.281Z,-5.326233
2022-12-13T19:39:33.666Z,-5.255737
2022-12-13T19:42:59.118Z,-5.28595
2022-12-13T19:46:24.493Z,-5.144958
2022-12-13T19:49:49.683Z,-5.084534
2022-12-13T19:53:14.975Z,-5.04425
2022-12-13T19:56:40.361Z,-4.993896
2022-12-13T20:00:05.614Z,-5.003967
2022-12-13T20:03:30.961Z,-5.04425
2022-12-13T20:06:56.333Z,-5.04425
2022-12-13T20:10:21.655Z,-5.003967
2022-12-13T20:13:47.020Z,-5.175171
2022-12-13T20:17:12.380Z,-5.547791
2022-12-13T20:21:02.172Z,-5.708923
2022-12-13T20:24:03.099Z,-5.819702
2022-12-13T20:27:28.450Z,-5.648499
2022-12-13T20:30:53.880Z,-5.618286
2022-12-13T20:34:19.218Z,-5.678711
2022-12-13T20:37:44.497Z,-5.618286
2022-12-13T20:41:09.846Z,-5.638428
2022-12-13T20:44:35.314Z,-5.799561
2022-12-13T20:48:00.970Z,-6.101685
2022-12-13T20:51:26.257Z,-6.29303
2022-12-13T20:54:51.559Z,-6.282959
2022-12-13T20:58:16.868Z,-6.162109
2022-12-13T21:01:42.234Z,-5.92041
2022-12-13T21:05:07.478Z,-5.658569
2022-12-13T21:08:32.781Z,-5.53772
2022-12-13T21:11:58.105Z,-5.356445
2022-12-13T21:15:23.364Z,-5.215454
2022-12-13T21:18:48.995Z,-5.144958
2022-12-13T21:22:14.197Z,-5.1651
2022-12-13T21:25:39.409Z,-5.215454
2022-12-13T21:29:04.695Z,-5.185242
2022-12-13T21:32:29.915Z,-5.074463
2022-12-13T21:35:55.198Z,-4.993896
2022-12-13T21:39:20.440Z,-4.923401
2022-12-13T21:42:45.636Z,-4.973755
2022-12-13T21:46:10.917Z,-4.993896
2022-12-13T21:49:36.088Z,-5.003967
2022-12-13T21:53:01.326Z,-4.953613
2022-12-13T21:56:26.600Z,-4.903259
2022-12-13T21:59:51.811Z,-4.903259
2022-12-13T22:03:17.031Z,-4.963684
2022-12-13T22:06:42.291Z,-4.993896
2022-12-13T22:10:07.510Z,-4.953613
2022-12-13T22:13:32.779Z,-4.893188
2022-12-13T22:16:58.007Z,-4.832764
2022-12-13T22:20:23.281Z,-4.832764
2022-12-13T22:23:48.453Z,-4.852905
2022-12-13T22:27:13.670Z,-4.832764
2022-12-13T22:30:38.928Z,-4.79248
2022-12-13T22:34:04.131Z,-4.742126
2022-12-13T22:37:29.385Z,-4.752197
2022-12-13T22:40:54.578Z,-4.873047
2022-12-13T22:44:19.851Z,-4.852905
2022-12-13T22:47:45.153Z,-4.852905
2022-12-13T22:51:10.343Z,-4.742126
2022-12-13T22:54:35.565Z,-4.721985
2022-12-13T22:58:00.830Z,-4.691772
2022-12-13T23:01:26.099Z,-4.671631
2022-12-13T23:04:51.311Z,-4.681702
2022-12-13T23:08:16.507Z,-4.691772
2022-12-13T23:11:41.729Z,-4.651489
2022-12-13T23:15:06.960Z,-4.671631
2022-12-13T23:18:32.216Z,-4.631348
2022-12-13T23:21:57.470Z,-4.681702
2022-12-13T23:25:22.692Z,-4.651489
2022-12-13T23:28:47.947Z,-4.671631
2022-12-13T23:32:13.179Z,-4.691772
2022-12-13T23:35:38.414Z,-4.711914
2022-12-13T23:39:03.703Z,-4.711914
2022-12-13T23:42:28.918Z,-4.752197
2022-12-13T23:45:54.294Z,-4.78241
2022-12-13T23:49:19.363Z,-4.79248
2022-12-13T23:52:44.577Z,-4.742126
2022-12-13T23:56:09.813Z,-4.631348
2022-12-13T23:59:35.025Z,-4.570923
